Time;durP1;ratioP1;P1;durP2;ratioP2;P2;SDS_P1;SDS_P2;PMS_P1;PMS_P2;Temp;Humidity;BMP_temperature;BMP_pressure;BME280_temperature;BME280_humidity;BME280_pressure;Samples;Min_cycle;Max_cycle;Signal;HPM_P1;HPM_P2
2022/04/10 00:03:07;;;;;;;3.67;3.33;;;;;;;8.40;53.07;98937.06;7017254;28;20203;-84
2022/04/10 00:06:28;;;;;;;5.43;3.63;;;;;;;8.11;53.73;98945.94;7016699;28;20223;-84
2022/04/10 00:10:02;;;;;;;5.10;3.40;;;;;;;7.88;55.04;98945.22;7015547;28;20238;-84
2022/04/10 00:13:34;;;;;;;5.10;3.50;;;;;;;8.05;54.98;98948.53;7016236;28;20298;-85
2022/04/10 00:16:57;;;;;;;5.70;3.87;;;;;;;8.09;53.82;98937.25;7014403;28;20218;-85
2022/04/10 00:20:19;;;;;;;3.67;3.30;;;;;;;7.99;54.18;98935.84;7016894;28;20238;-84
2022/04/10 00:23:41;;;;;;;3.73;3.37;;;;;;;8.12;54.23;98944.94;7017581;28;20212;-85
2022/04/10 00:27:03;;;;;;;7.57;3.60;;;;;;;8.15;54.02;98951.78;7015092;28;20227;-83
2022/04/10 00:30:24;;;;;;;5.63;3.33;;;;;;;8.07;53.23;98950.03;7013840;28;20238;-84
2022/04/10 00:33:48;;;;;;;3.90;3.50;;;;;;;7.84;53.57;98927.81;7012992;28;20234;-83
2022/04/10 00:37:09;;;;;;;4.83;3.63;;;;;;;7.65;54.72;98954.34;7013349;28;20212;-83
2022/04/10 00:40:31;;;;;;;3.93;3.40;;;;;;;7.20;54.91;98882.03;7013837;28;20232;-83
2022/04/10 00:44:03;;;;;;;7.17;4.00;;;;;;;7.48;55.22;98953.66;7014430;28;20317;-83
2022/04/10 00:47:25;;;;;;;5.10;4.10;;;;;;;7.44;55.80;98955.06;7013649;28;20502;-84
2022/04/10 00:54:25;;;;;;;6.67;4.37;;;;;;;7.52;54.56;98941.56;7016132;28;20208;-84
2022/04/10 00:57:48;;;;;;;6.17;4.10;;;;;;;6.90;56.34;98945.44;7015026;28;20201;-85
2022/04/10 01:01:10;;;;;;;4.17;3.87;;;;;;;6.04;57.92;98900.25;7016753;28;20224;-89
2022/04/10 01:04:32;;;;;;;3.90;3.60;;;;;;;7.12;56.86;98954.47;7019305;28;20206;-86
2022/04/10 01:07:55;;;;;;;6.30;4.60;;;;;;;6.21;59.03;98966.94;7017393;28;20251;-86
2022/04/10 01:11:17;;;;;;;6.00;3.80;;;;;;;7.07;57.05;98956.91;7017731;28;20222;-85
2022/04/10 01:14:40;;;;;;;4.37;3.77;;;;;;;7.22;56.62;98960.44;7018303;28;20214;-85
2022/04/10 01:18:02;;;;;;;5.20;3.93;;;;;;;7.30;55.88;98958.53;7018039;28;20198;-85
2022/04/10 01:21:25;;;;;;;4.00;3.70;;;;;;;7.17;56.66;98954.78;7019333;28;20233;-85
2022/04/10 01:24:49;;;;;;;4.30;3.77;;;;;;;7.48;55.69;98959.03;7018800;28;20237;-85
2022/04/10 01:28:12;;;;;;;5.17;3.57;;;;;;;7.44;55.41;98965.81;7018587;28;20206;-86
2022/04/10 01:31:36;;;;;;;4.43;3.67;;;;;;;6.38;57.61;98946.28;7019482;28;20200;-84
2022/04/10 01:35:00;;;;;;;5.60;4.10;;;;;;;6.79;57.57;98950.38;7018816;28;20206;-84
2022/04/10 01:38:22;;;;;;;4.97;3.73;;;;;;;7.18;57.18;98986.78;7019123;28;20210;-85
2022/04/10 01:41:46;;;;;;;6.03;4.50;;;;;;;7.26;56.50;98981.34;7019373;28;20218;-84
2022/04/10 01:45:09;;;;;;;4.87;4.10;;;;;;;7.09;57.12;98982.50;7018726;28;20211;-83
2022/04/10 01:48:31;;;;;;;7.63;4.40;;;;;;;6.86;57.43;98995.06;7017360;28;20670;-84
2022/04/10 01:51:53;;;;;;;5.23;3.93;;;;;;;6.93;58.22;98992.50;7018641;28;20201;-84
2022/04/10 01:55:14;;;;;;;5.20;3.90;;;;;;;7.37;56.42;98996.19;7019027;28;20290;-84
2022/04/10 01:58:39;;;;;;;5.10;3.77;;;;;;;7.62;55.88;98993.13;7022907;28;20240;-85
2022/04/10 02:02:01;;;;;;;5.63;3.93;;;;;;;6.65;56.40;98917.16;7023284;28;20284;-85
2022/04/10 02:05:23;;;;;;;6.93;4.23;;;;;;;7.20;57.35;98976.69;7023269;28;20237;-86
2022/04/10 02:08:45;;;;;;;3.97;3.57;;;;;;;7.69;55.37;98995.91;7022472;28;20241;-84
2022/04/10 02:12:08;;;;;;;5.33;3.40;;;;;;;7.39;56.59;98986.13;7023048;28;20215;-84
2022/04/10 02:15:31;;;;;;;4.33;3.50;;;;;;;7.30;56.45;98979.97;7023421;28;20256;-84
2022/04/10 02:18:53;;;;;;;4.07;3.67;;;;;;;7.30;56.59;98985.34;7023741;28;20242;-84
2022/04/10 02:22:15;;;;;;;4.20;3.80;;;;;;;7.43;56.46;98982.06;7024179;28;20253;-85
2022/04/10 02:25:37;;;;;;;4.70;3.90;;;;;;;7.60;55.88;98973.66;7023556;28;20236;-84
2022/04/10 02:28:59;;;;;;;5.47;4.20;;;;;;;7.84;56.28;98986.84;7023465;28;20232;-84
2022/04/10 02:32:23;;;;;;;4.03;3.60;;;;;;;8.00;56.04;98980.47;7023777;28;20205;-85
2022/04/10 02:35:45;;;;;;;4.70;3.77;;;;;;;7.90;55.42;98972.69;7021953;28;20205;-84
2022/04/10 02:39:07;;;;;;;4.37;3.97;;;;;;;8.09;55.23;98976.69;7021704;28;20717;-84
2022/04/10 02:42:28;;;;;;;4.37;3.97;;;;;;;8.15;55.44;98989.38;7021281;28;20217;-86
2022/04/10 02:45:50;;;;;;;4.60;4.20;;;;;;;7.72;55.19;98972.22;7020590;28;20239;-84
2022/04/10 02:49:38;;;;;;;6.37;4.10;;;;;;;7.74;55.81;98994.34;7021462;28;20235;-89
2022/04/10 02:53:00;;;;;;;7.10;4.63;;;;;;;7.91;55.19;98995.00;7022388;28;20271;-87
2022/04/10 02:56:22;;;;;;;4.40;4.00;;;;;;;7.71;55.43;98964.38;7021374;28;20250;-84
2022/04/10 02:59:44;;;;;;;5.20;4.10;;;;;;;8.04;54.91;99004.09;7022229;28;20245;-84
2022/04/10 03:03:06;;;;;;;6.20;4.40;;;;;;;7.58;55.27;98986.44;7021918;28;20275;-84
2022/04/10 03:06:29;;;;;;;7.30;4.20;;;;;;;7.89;54.85;98986.31;7021598;28;20293;-87
2022/04/10 03:09:51;;;;;;;6.40;4.23;;;;;;;7.55;54.50;98949.22;7023018;28;20242;-84
2022/04/10 03:13:13;;;;;;;4.53;3.97;;;;;;;7.45;54.93;99002.34;7023066;28;20211;-86
2022/04/10 03:16:35;;;;;;;6.53;4.47;;;;;;;7.45;55.63;98999.66;7021689;28;20761;-84
2022/04/10 03:19:57;;;;;;;5.33;3.87;;;;;;;7.36;56.07;98998.03;7020588;28;20231;-84
2022/04/10 03:23:20;;;;;;;5.73;4.30;;;;;;;7.39;55.83;99000.38;7021336;28;20202;-84
2022/04/10 03:26:43;;;;;;;4.63;4.23;;;;;;;7.50;55.02;98986.53;7020613;28;20230;-85
2022/04/10 03:30:06;;;;;;;4.67;4.10;;;;;;;7.32;55.14;99001.25;7022903;28;20231;-85
2022/04/10 03:33:28;;;;;;;5.77;4.33;;;;;;;6.85;56.47;98973.78;7024084;28;20226;-84
2022/04/10 03:36:50;;;;;;;5.47;4.73;;;;;;;7.14;56.39;99012.28;7023271;28;20216;-85
2022/04/10 03:40:14;;;;;;;4.67;4.27;;;;;;;7.12;56.10;99017.00;7023365;28;20284;-84
2022/04/10 03:43:36;;;;;;;6.40;4.90;;;;;;;7.06;55.99;98990.06;7023466;28;20204;-84
2022/04/10 03:46:58;;;;;;;6.17;4.90;;;;;;;7.21;55.54;99023.13;7022671;28;20247;-84
2022/04/10 03:50:19;;;;;;;4.70;4.30;;;;;;;7.35;54.93;99022.34;7023104;28;20228;-88
2022/04/10 03:53:41;;;;;;;4.50;4.10;;;;;;;7.21;54.90;99021.31;7022911;28;20636;-84
2022/04/10 03:57:05;;;;;;;4.97;4.07;;;;;;;7.11;55.53;99036.78;7022767;28;20211;-84
2022/04/10 04:00:27;;;;;;;6.23;4.97;;;;;;;7.21;55.46;99042.75;7023471;28;20236;-86
2022/04/10 04:03:49;;;;;;;5.67;3.90;;;;;;;7.25;54.91;99045.91;7022213;28;20207;-86
2022/04/10 04:07:20;;;;;;;4.90;4.40;;;;;;;7.16;55.14;99047.81;7019036;28;20224;-84
2022/04/10 04:10:42;;;;;;;5.13;4.70;;;;;;;6.65;55.37;99018.09;7013275;28;20251;-83
2022/04/10 04:14:07;;;;;;;6.10;4.50;;;;;;;6.95;55.38;99057.50;7015188;28;20208;-85
2022/04/10 04:17:29;;;;;;;5.10;4.60;;;;;;;6.71;56.16;99077.19;7018003;28;20205;-84
2022/04/10 04:21:19;;;;;;;5.33;4.70;;;;;;;6.46;57.33;99085.50;7020559;28;20227;-86
2022/04/10 04:24:41;;;;;;;6.27;4.63;;;;;;;6.76;56.52;99082.03;7018757;28;20677;-85
2022/04/10 04:28:03;;;;;;;5.00;4.60;;;;;;;6.79;56.55;99077.16;7019365;28;20226;-84
2022/04/10 04:31:26;;;;;;;6.50;4.77;;;;;;;6.71;56.40;99085.22;7020740;28;20234;-85
2022/04/10 04:34:48;;;;;;;5.83;4.93;;;;;;;5.90;58.37;99096.34;7020472;28;20208;-85
2022/04/10 04:38:13;;;;;;;5.17;4.60;;;;;;;6.40;57.47;99094.22;7014491;28;20623;-83
2022/04/10 04:41:35;;;;;;;7.37;4.80;;;;;;;6.51;57.26;99080.47;7021315;28;20209;-83
2022/04/10 04:44:57;;;;;;;5.10;4.53;;;;;;;6.22;57.66;99042.72;7021674;28;20212;-84
2022/04/10 04:48:20;;;;;;;5.97;5.10;;;;;;;6.17;57.10;99000.41;7020348;28;20239;-84
2022/04/10 05:00:19;;;;;;;5.27;4.77;;;;;;;6.80;56.77;99097.59;7009981;28;20314;-84
2022/04/10 05:03:42;;;;;;;5.73;5.13;;;;;;;6.52;57.76;99104.41;7010562;28;20216;-84
2022/04/10 05:07:42;;;;;;;7.97;5.60;;;;;;;6.67;58.20;99113.38;7019377;28;20251;-84
2022/04/10 05:11:22;;;;;;;5.33;4.83;;;;;;;7.05;56.82;99122.41;6992282;28;20236;-85
2022/04/10 05:15:08;;;;;;;;;;;;;;;;;;;;;
2022/04/10 05:22:35;;;;;;;9.37;5.40;;;;;;;6.60;57.32;99099.00;6935605;28;20200;-84
2022/04/10 05:25:57;;;;;;;6.37;5.77;;;;;;;7.08;57.33;99148.91;6954661;28;20269;-84
2022/04/10 05:29:19;;;;;;;5.63;5.10;;;;;;;7.28;57.09;99152.81;7022799;28;20225;-86
2022/04/10 05:32:43;;;;;;;6.67;5.03;;;;;;;7.38;56.25;99151.56;7026628;28;20271;-83
2022/04/10 05:36:06;;;;;;;8.07;5.40;;;;;;;7.56;55.99;99149.47;7026026;28;20205;-84
2022/04/10 05:40:30;;;;;;;9.83;5.67;;;;;;;7.44;57.32;99158.94;7026825;28;20230;-85
2022/04/10 05:44:16;;;;;;;9.73;5.80;;;;;;;7.69;56.55;99165.81;6805208;29;20225;-83
2022/04/10 05:47:38;;;;;;;7.80;5.80;;;;;;;8.14;56.21;99170.31;6839115;28;20238;-85
2022/04/10 05:50:59;;;;;;;8.63;5.60;;;;;;;8.55;54.21;99163.59;6909559;28;20715;-85
2022/04/10 05:54:22;;;;;;;6.80;5.20;;;;;;;8.44;53.44;99078.06;6909184;28;20208;-84
2022/04/10 05:57:45;;;;;;;5.37;4.93;;;;;;;8.57;53.41;99169.59;6908757;28;20212;-85
2022/04/10 06:01:07;;;;;;;7.70;5.90;;;;;;;8.34;55.03;99183.09;6908217;28;20233;-84
2022/04/10 06:04:44;;;;;;;5.40;4.90;;;;;;;9.42;51.80;99180.53;6907409;28;20210;-84
2022/04/10 06:08:06;;;;;;;7.07;5.07;;;;;;;9.40;51.35;99115.31;6906960;28;20705;-83
2022/04/10 06:11:29;;;;;;;5.43;4.77;;;;;;;10.46;50.14;99189.72;6906621;28;20228;-84
2022/04/10 06:14:51;;;;;;;7.87;5.97;;;;;;;10.36;49.10;99143.38;6906296;28;20227;-83
2022/04/10 06:18:12;;;;;;;5.30;4.80;;;;;;;10.12;49.46;99144.66;6906181;28;20260;-84
2022/04/10 06:21:34;;;;;;;8.67;5.43;;;;;;;10.26;49.62;99172.53;7018448;28;20213;-84
2022/04/10 06:24:59;;;;;;;7.37;4.70;;;;;;;11.56;47.83;99184.16;7017992;28;20209;-84
2022/04/10 06:28:22;;;;;;;5.37;4.47;;;;;;;12.41;44.40;99182.50;7008979;28;20206;-81
2022/04/10 06:31:44;;;;;;;6.37;4.67;;;;;;;11.32;45.48;99182.81;7008560;28;20204;-80
2022/04/10 06:35:06;;;;;;;5.67;4.90;;;;;;;10.98;46.20;99190.09;7008358;28;20212;-78
2022/04/10 06:38:28;;;;;;;5.17;4.67;;;;;;;9.94;47.22;99192.72;7008286;28;20208;-79
2022/04/10 06:41:50;;;;;;;6.63;4.63;;;;;;;10.06;48.52;99188.53;7007362;28;20234;-79
2022/04/10 06:45:12;;;;;;;7.97;5.43;;;;;;;10.13;48.88;99192.13;7007799;28;20209;-79
2022/04/10 06:48:35;;;;;;;5.10;4.60;;;;;;;10.36;48.86;99194.59;7022888;28;20229;-79
2022/04/10 06:51:57;;;;;;;5.50;4.87;;;;;;;10.77;47.55;99195.53;7034966;28;20201;-81
2022/04/10 06:55:18;;;;;;;5.57;4.80;;;;;;;9.84;48.71;99202.97;7034897;28;20204;-83
2022/04/10 06:58:40;;;;;;;5.93;5.23;;;;;;;10.12;49.48;99195.84;7034349;28;20232;-83
2022/04/10 07:02:04;;;;;;;5.83;4.90;;;;;;;10.85;47.35;99201.63;7037251;28;20208;-82
2022/04/10 07:05:25;;;;;;;8.60;4.83;;;;;;;10.47;47.84;99208.41;7020514;28;20205;-83
2022/04/10 07:08:47;;;;;;;7.57;5.40;;;;;;;10.63;47.62;99181.13;7013414;28;20248;-84
2022/04/10 07:12:10;;;;;;;5.47;5.00;;;;;;;11.56;46.23;99201.19;7018463;28;20193;-82
2022/04/10 07:15:32;;;;;;;5.50;4.67;;;;;;;11.50;45.70;99206.53;7018147;28;20218;-84
2022/04/10 07:18:55;;;;;;;5.87;4.50;;;;;;;10.57;47.08;99203.47;7017586;28;20232;-82
2022/04/10 07:25:55;;;;;;;7.90;4.83;;;;;;;10.93;47.10;99212.25;7008297;28;20233;-85
2022/04/10 07:29:17;;;;;;;5.70;4.73;;;;;;;10.93;46.61;99216.84;7010616;28;20229;-82
2022/04/10 07:32:39;;;;;;;5.87;4.83;;;;;;;11.09;46.41;99227.31;7008622;28;20255;-82
2022/04/10 07:36:02;;;;;;;5.87;4.60;;;;;;;10.51;47.15;99198.88;7005408;28;20704;-82
2022/04/10 07:39:23;;;;;;;6.13;4.67;;;;;;;10.91;46.72;99218.88;7005452;28;20291;-80
2022/04/10 07:42:45;;;;;;;6.60;5.07;;;;;;;11.70;45.59;99210.22;7005398;28;20740;-80
2022/04/10 07:49:47;;;;;;;5.30;4.57;;;;;;;12.31;43.25;99214.50;7005755;28;20217;-80
2022/04/10 07:53:10;;;;;;;6.53;5.10;;;;;;;12.23;43.35;99225.53;7006087;28;20581;-80
2022/04/10 07:56:32;;;;;;;6.27;4.90;;;;;;;12.55;44.01;99219.31;7005912;28;20208;-80
2022/04/10 07:59:53;;;;;;;5.20;4.70;;;;;;;12.60;42.59;99212.25;7006461;28;20232;-80
2022/04/10 08:03:15;;;;;;;7.17;4.50;;;;;;;13.20;41.51;99216.56;7006246;28;20287;-78
2022/04/10 08:06:37;;;;;;;6.70;4.83;;;;;;;12.50;42.52;99235.31;7005153;28;20209;-79
2022/04/10 08:09:59;;;;;;;6.40;5.73;;;;;;;13.05;41.04;99213.28;7005482;28;20717;-78
2022/04/10 08:13:21;;;;;;;5.63;4.60;;;;;;;12.24;42.80;99213.66;7005572;28;20206;-78
2022/04/10 08:16:43;;;;;;;5.70;5.20;;;;;;;12.70;41.02;99219.94;7006215;28;20218;-78
2022/04/10 08:20:05;;;;;;;4.93;4.10;;;;;;;12.76;41.27;99235.34;7032532;28;20366;-78
2022/04/10 08:23:27;;;;;;;5.07;4.20;;;;;;;12.55;40.42;99217.44;7034003;28;20198;-79
2022/04/10 08:26:50;;;;;;;4.67;4.27;;;;;;;12.79;40.24;99240.31;7032870;28;20316;-81
2022/04/10 08:30:12;;;;;;;5.00;4.50;;;;;;;13.42;39.65;99251.34;7034071;28;20232;-81
2022/04/10 08:33:34;;;;;;;5.60;4.50;;;;;;;13.04;40.42;99246.81;7033541;28;20850;-81
2022/04/10 08:36:56;;;;;;;5.17;4.30;;;;;;;12.94;38.78;99252.63;7032553;28;20677;-81
2022/04/10 08:40:18;;;;;;;5.23;4.33;;;;;;;13.07;38.67;99235.56;7033141;28;20280;-81
2022/04/10 08:43:42;;;;;;;5.10;4.67;;;;;;;12.97;39.94;99254.94;7032887;28;20243;-81
2022/04/10 08:47:05;;;;;;;6.53;5.07;;;;;;;13.34;39.29;99251.53;7033040;28;20366;-81
2022/04/10 08:50:27;;;;;;;6.80;4.23;;;;;;;13.00;39.45;99238.28;7033019;28;20220;-81
2022/04/10 08:53:49;;;;;;;5.67;4.50;;;;;;;12.79;39.05;99252.00;7033237;28;20209;-81
2022/04/10 08:57:10;;;;;;;6.20;4.23;;;;;;;12.61;40.62;99267.16;7032521;28;20211;-81
2022/04/10 09:00:35;;;;;;;6.47;4.93;;;;;;;13.46;39.13;99265.28;7033494;28;20229;-81
2022/04/10 09:03:56;;;;;;;6.37;5.77;;;;;;;14.03;38.75;99257.13;7032829;28;20274;-82
2022/04/10 09:07:18;;;;;;;6.13;4.93;;;;;;;13.75;38.86;99273.72;7033798;28;20705;-81
2022/04/10 09:10:59;;;;;;;5.13;4.33;;;;;;;13.88;36.74;99262.84;7037556;28;20237;-81
2022/04/10 09:14:22;;;;;;;5.93;4.47;;;;;;;13.65;36.90;99251.69;7044513;28;20188;-80
2022/04/10 09:17:55;;;;;;;4.47;4.00;;;;;;;14.12;36.30;99259.41;7038044;28;20216;-79
2022/04/10 09:21:18;;;;;;;4.87;4.37;;;;;;;14.29;37.27;99265.19;7034249;28;20229;-79
2022/04/10 09:25:01;;;;;;;9.40;7.60;;;;;;;14.65;35.97;99271.63;7033074;28;20205;-79
2022/04/10 09:28:40;;;;;;;57.07;41.03;;;;;;;15.06;34.71;99223.03;7031450;28;20251;-79
2022/04/10 09:32:02;;;;;;;6.13;5.40;;;;;;;15.81;33.33;99240.84;7032648;28;20234;-79
2022/04/10 09:35:25;;;;;;;7.77;5.77;;;;;;;16.17;34.23;99255.19;7032062;28;20215;-79
2022/04/10 09:38:47;;;;;;;5.63;4.00;;;;;;;16.54;34.45;99245.09;7032047;28;20332;-80
2022/04/10 09:42:09;;;;;;;7.63;3.90;;;;;;;15.55;33.05;99220.22;7031934;28;20607;-77
2022/04/10 09:45:34;;;;;;;5.00;4.57;;;;;;;15.65;33.73;99255.88;7030891;28;20214;-77
2022/04/10 09:48:55;;;;;;;5.53;4.37;;;;;;;14.65;33.89;99214.63;7030803;28;20721;-77
2022/04/10 09:52:19;;;;;;;5.47;4.77;;;;;;;15.18;34.32;99259.28;7030925;28;20215;-77
2022/04/10 09:55:42;;;;;;;8.53;4.50;;;;;;;15.02;33.87;99253.56;7031515;28;20262;-79
2022/04/10 09:59:03;;;;;;;5.80;4.03;;;;;;;15.23;34.16;99264.03;7032819;28;20504;-79
2022/04/10 10:02:25;;;;;;;9.53;6.83;;;;;;;14.93;34.28;99257.63;7032599;28;20224;-79
2022/04/10 10:05:47;;;;;;;5.70;5.20;;;;;;;14.82;34.31;99252.91;7031666;28;20204;-79
2022/04/10 10:09:11;;;;;;;5.40;4.00;;;;;;;14.91;33.07;99251.56;7031764;28;20231;-79
2022/04/10 10:12:34;;;;;;;6.50;4.33;;;;;;;15.19;34.85;99238.34;7032797;28;20354;-79
2022/04/10 10:15:56;;;;;;;3.80;3.47;;;;;;;15.56;34.86;99223.75;7032657;28;20212;-80
2022/04/10 10:19:18;;;;;;;5.33;3.70;;;;;;;16.01;31.94;99215.06;7037382;28;20317;-79
2022/04/10 10:22:39;;;;;;;7.77;4.63;;;;;;;15.35;31.27;99245.97;7037105;28;20207;-79
2022/04/10 10:26:10;;;;;;;5.90;4.30;;;;;;;13.97;33.58;99237.16;7036429;28;20223;-79
2022/04/10 10:29:46;;;;;;;4.10;3.70;;;;;;;14.16;33.24;99225.34;7036710;28;20225;-80
2022/04/10 10:33:17;;;;;;;5.47;3.87;;;;;;;13.72;34.39;99216.41;7037867;28;20216;-80
2022/04/10 10:36:38;;;;;;;5.13;3.63;;;;;;;14.00;35.15;99244.00;7036856;28;20204;-79
2022/04/10 10:40:00;;;;;;;5.90;3.53;;;;;;;13.17;35.22;99160.97;7037318;28;20597;-79
2022/04/10 10:43:24;;;;;;;4.07;3.67;;;;;;;13.80;35.29;99227.84;7036704;28;20212;-79
2022/04/10 10:46:57;;;;;;;5.37;3.90;;;;;;;13.71;36.82;99247.28;7036766;28;20217;-80
2022/04/10 10:50:28;;;;;;;4.37;3.70;;;;;;;12.31;40.57;99276.69;7036310;28;20312;-79
2022/04/10 10:53:51;;;;;;;6.37;4.40;;;;;;;10.89;46.34;99283.00;7037212;28;20297;-79
2022/04/10 10:57:26;;;;;;;4.67;4.27;;;;;;;10.68;49.14;99299.22;7036466;28;20284;-82
2022/04/10 11:00:53;;;;;;;7.20;4.70;;;;;;;11.07;50.16;99311.16;7035848;28;20228;-81
2022/04/10 11:04:14;;;;;;;5.07;4.37;;;;;;;12.08;47.67;99285.16;7035637;28;20273;-82
2022/04/10 11:07:42;;;;;;;4.93;4.10;;;;;;;13.06;45.20;99285.34;7035492;28;20620;-79
2022/04/10 11:11:05;;;;;;;4.87;3.97;;;;;;;13.22;43.76;99274.06;7035295;28;20244;-79
2022/04/10 11:14:38;;;;;;;6.70;4.27;;;;;;;14.13;40.68;99271.91;7036418;28;20225;-79
2022/04/10 11:18:35;;;;;;;4.53;3.77;;;;;;;13.00;40.95;99287.00;7035263;28;20207;-79
2022/04/10 11:21:57;;;;;;;13.43;6.33;;;;;;;14.21;40.59;99262.72;7034487;28;20629;-77
2022/04/10 11:25:20;;;;;;;6.03;4.33;;;;;;;14.74;36.74;99266.75;7033242;28;20680;-78
2022/04/10 11:28:56;;;;;;;6.20;5.00;;;;;;;14.96;37.84;99257.16;7033453;28;20317;-77
2022/04/10 11:32:18;;;;;;;5.93;4.70;;;;;;;14.87;37.40;99258.50;7034804;28;20677;-78
2022/04/10 11:35:43;;;;;;;7.57;6.87;;;;;;;14.30;37.59;99235.13;7035533;28;20270;-78
2022/04/10 11:39:11;;;;;;;8.93;4.37;;;;;;;13.78;37.58;99251.63;7034907;28;20227;-78
2022/04/10 11:42:34;;;;;;;5.07;4.30;;;;;;;14.05;37.30;99207.06;7034282;28;20351;-78
2022/04/10 11:45:55;;;;;;;4.43;4.03;;;;;;;15.17;36.80;99249.44;7033816;28;20288;-78
2022/04/10 11:49:20;;;;;;;5.83;4.30;;;;;;;15.20;36.50;99224.56;7034272;28;20239;-78
2022/04/10 11:52:56;;;;;;;4.90;4.20;;;;;;;15.46;34.73;99229.72;7034108;28;20324;-78
2022/04/10 11:56:19;;;;;;;8.17;4.50;;;;;;;15.28;34.82;99226.97;7034009;28;20728;-78
2022/04/10 11:59:42;;;;;;;4.77;3.93;;;;;;;15.84;33.97;99224.06;7035571;28;20221;-78
2022/04/10 12:03:04;;;;;;;5.93;4.17;;;;;;;15.55;33.99;99205.81;7034492;28;20216;-78
2022/04/10 12:06:27;;;;;;;4.47;3.60;;;;;;;15.42;32.98;99220.41;7033661;28;20682;-78
2022/04/10 12:09:52;;;;;;;4.60;3.50;;;;;;;15.99;31.27;99229.94;7033929;28;20230;-78
2022/04/10 12:13:13;;;;;;;5.33;3.80;;;;;;;16.17;31.32;99227.19;7034056;28;20202;-78
2022/04/10 12:16:35;;;;;;;5.37;3.87;;;;;;;15.38;30.65;99234.63;7033644;28;20199;-78
2022/04/10 12:19:57;;;;;;;5.13;3.83;;;;;;;15.49;31.75;99223.00;7033464;28;20727;-79
2022/04/10 12:23:20;;;;;;;5.67;4.10;;;;;;;15.27;33.04;99230.75;7034422;28;20212;-78
2022/04/10 12:26:43;;;;;;;5.70;4.13;;;;;;;14.24;38.10;99237.88;7032825;28;20209;-78
2022/04/10 12:30:10;;;;;;;5.83;3.93;;;;;;;12.87;39.05;99238.25;7034685;28;20241;-77
2022/04/10 12:33:32;;;;;;;5.63;3.83;;;;;;;11.25;40.38;99181.09;7034232;28;20201;-77
2022/04/10 12:36:54;;;;;;;4.53;3.27;;;;;;;12.33;39.25;99234.09;7037433;28;20193;-78
2022/04/10 12:40:26;;;;;;;4.83;4.23;;;;;;;11.90;39.87;99205.69;7040568;28;20780;-78
2022/04/10 12:43:59;;;;;;;7.20;3.80;;;;;;;12.24;39.74;99248.81;7032348;28;20215;-78
2022/04/10 12:47:39;;;;;;;5.03;4.00;;;;;;;11.81;41.67;99255.56;7031214;28;20194;-78
2022/04/10 12:51:05;;;;;;;4.60;3.80;;;;;;;12.26;42.97;99250.28;7031704;28;20781;-78
2022/04/10 12:54:37;;;;;;;6.20;4.00;;;;;;;12.78;41.85;99254.91;7031636;28;20282;-78
2022/04/10 12:58:00;;;;;;;4.13;3.73;;;;;;;12.39;43.69;99252.19;7031608;28;20193;-78
2022/04/10 13:01:27;;;;;;;5.17;3.67;;;;;;;12.88;42.52;99244.50;7032371;28;20708;-77
2022/04/10 13:04:56;;;;;;;4.13;3.43;;;;;;;13.03;42.78;99247.84;7031835;28;20298;-78
2022/04/10 13:08:18;;;;;;;4.87;3.30;;;;;;;12.41;42.42;99240.13;7030189;28;20224;-76
2022/04/10 13:11:40;;;;;;;4.20;3.17;;;;;;;12.95;40.14;99232.66;7031186;28;20216;-78
2022/04/10 13:15:01;;;;;;;3.93;2.87;;;;;;;13.57;39.90;99245.66;7030481;28;20208;-78
2022/04/10 13:18:27;;;;;;;2.90;2.70;;;;;;;13.40;38.83;99244.47;7029687;28;20215;-78
2022/04/10 13:21:49;;;;;;;3.00;2.80;;;;;;;13.64;38.39;99241.06;7031348;28;20233;-77
2022/04/10 13:25:12;;;;;;;3.83;2.80;;;;;;;13.85;38.26;99219.06;7029679;28;20211;-78
2022/04/10 13:28:34;;;;;;;4.20;3.03;;;;;;;13.47;37.65;99218.19;7030084;28;20263;-78
2022/04/10 13:31:55;;;;;;;3.57;2.83;;;;;;;13.65;38.09;99221.03;7030185;28;20209;-77
2022/04/10 13:35:18;;;;;;;3.57;3.00;;;;;;;13.32;37.71;99223.00;7030889;28;20213;-77
2022/04/10 13:38:40;;;;;;;2.97;2.77;;;;;;;13.77;36.64;99219.31;7030058;28;20221;-77
2022/04/10 13:42:02;;;;;;;3.60;3.17;;;;;;;14.26;36.16;99225.75;7031508;28;20279;-77
2022/04/10 13:45:24;;;;;;;3.50;2.93;;;;;;;14.77;35.57;99220.16;7031409;28;20599;-77
2022/04/10 13:48:46;;;;;;;3.70;2.97;;;;;;;13.45;38.25;99214.88;7030480;28;20674;-77
2022/04/10 13:52:09;;;;;;;3.93;3.40;;;;;;;12.84;39.57;99216.19;7035134;28;20208;-77
2022/04/10 13:55:31;;;;;;;5.10;3.40;;;;;;;12.79;39.43;99178.94;7036020;28;20205;-78
2022/04/10 13:58:52;;;;;;;5.20;3.57;;;;;;;12.54;40.36;99209.53;7035562;28;20309;-77
2022/04/10 14:02:14;;;;;;;5.47;3.07;;;;;;;13.13;39.13;99202.22;7036289;28;20216;-77
2022/04/10 14:05:35;;;;;;;4.07;3.13;;;;;;;13.41;38.92;99208.19;7035724;28;20217;-77
2022/04/10 14:08:58;;;;;;;4.03;3.00;;;;;;;14.00;36.93;99215.03;7034736;28;20236;-77
2022/04/10 14:12:20;;;;;;;5.73;3.13;;;;;;;13.58;36.58;99209.41;7035760;28;20209;-76
2022/04/10 14:15:42;;;;;;;4.97;2.87;;;;;;;14.66;35.94;99193.72;7034429;28;20204;-77
2022/04/10 14:19:03;;;;;;;4.17;3.37;;;;;;;15.35;34.25;99184.31;7035656;28;20298;-77
2022/04/10 14:22:25;;;;;;;3.87;2.60;;;;;;;15.37;33.66;99197.66;7035786;28;20213;-76
2022/04/10 14:25:48;;;;;;;3.10;2.80;;;;;;;13.85;35.36;99198.22;7034275;28;20624;-78
2022/04/10 14:29:10;;;;;;;4.20;3.00;;;;;;;15.08;33.67;99198.34;7035697;28;20237;-77
2022/04/10 14:32:32;;;;;;;4.27;2.67;;;;;;;14.82;34.04;99185.84;7035440;28;20204;-77
2022/04/10 14:35:53;;;;;;;3.07;2.77;;;;;;;15.18;34.23;99198.66;7034859;28;20658;-78
2022/04/10 14:39:15;;;;;;;4.37;2.70;;;;;;;14.74;33.99;99202.44;7035024;28;20230;-77
2022/04/10 14:42:38;;;;;;;3.00;2.70;;;;;;;14.50;34.80;99186.97;7034886;28;20277;-77
2022/04/10 14:46:00;;;;;;;3.63;2.93;;;;;;;14.72;35.16;99190.97;7034978;28;20847;-78
2022/04/10 14:49:22;;;;;;;3.70;2.77;;;;;;;15.28;34.52;99169.91;7034637;28;20263;-78
2022/04/10 14:52:43;;;;;;;5.07;3.00;;;;;;;14.82;34.94;99175.00;7034734;28;20202;-77
2022/04/10 14:56:06;;;;;;;5.20;3.70;;;;;;;15.07;33.91;99188.53;7034454;28;20232;-77
2022/04/10 14:59:29;;;;;;;6.37;3.77;;;;;;;14.57;35.50;99192.38;7033910;28;20217;-78
2022/04/10 15:02:51;;;;;;;6.43;3.20;;;;;;;13.58;36.58;99174.97;7033452;28;20297;-77
2022/04/10 15:06:13;;;;;;;3.63;3.10;;;;;;;13.52;37.30;99180.44;7033249;28;20571;-77
2022/04/10 15:09:34;;;;;;;3.70;2.83;;;;;;;14.59;35.93;99190.25;7033690;28;20237;-77
2022/04/10 15:12:56;;;;;;;6.10;3.33;;;;;;;14.44;35.46;99187.84;7034397;28;20206;-78
2022/04/10 15:16:19;;;;;;;3.97;3.43;;;;;;;15.18;34.54;99175.06;7033327;28;20200;-77
2022/04/10 15:19:43;;;;;;;3.10;2.87;;;;;;;14.95;34.84;99179.47;7033587;28;20302;-77
2022/04/10 15:23:05;;;;;;;4.70;3.00;;;;;;;15.00;34.90;99182.34;7033977;28;20198;-77
2022/04/10 15:26:26;;;;;;;3.73;3.03;;;;;;;14.69;33.92;99163.44;7032554;28;20774;-77
2022/04/10 15:29:49;;;;;;;3.37;2.87;;;;;;;15.54;33.95;99168.81;7032055;28;20821;-77
2022/04/10 15:33:12;;;;;;;3.13;2.90;;;;;;;14.87;33.66;99177.88;7033458;28;20217;-77
2022/04/10 15:36:33;;;;;;;4.37;3.77;;;;;;;14.47;34.05;99184.72;7033623;28;20201;-76
2022/04/10 15:39:55;;;;;;;5.23;3.57;;;;;;;14.86;33.67;99134.69;7033689;28;20229;-78
2022/04/10 15:43:16;;;;;;;7.10;4.47;;;;;;;14.86;33.88;99175.41;7033617;28;20343;-78
2022/04/10 15:46:38;;;;;;;5.93;3.67;;;;;;;14.99;33.85;99172.56;7032861;28;20201;-78
2022/04/10 15:50:01;;;;;;;3.67;3.20;;;;;;;15.46;32.31;99163.69;7031974;28;20290;-77
2022/04/10 15:53:23;;;;;;;3.20;2.90;;;;;;;15.41;33.06;99139.09;7032382;28;20215;-78
2022/04/10 15:56:45;;;;;;;3.30;3.00;;;;;;;15.02;33.35;99156.63;7031581;28;20227;-78
2022/04/10 16:00:09;;;;;;;4.50;3.43;;;;;;;14.09;34.50;99166.81;7032043;28;20707;-77
2022/04/10 16:03:31;;;;;;;4.43;2.90;;;;;;;13.97;34.97;99166.66;7032757;28;20663;-77
2022/04/10 16:06:54;;;;;;;7.43;3.40;;;;;;;14.10;34.50;99165.75;7034583;28;20236;-78
2022/04/10 16:10:16;;;;;;;4.07;3.20;;;;;;;14.17;35.13;99169.25;7033401;28;20245;-78
2022/04/10 16:13:38;;;;;;;4.17;3.40;;;;;;;14.20;35.51;99145.25;7030898;28;20211;-78
2022/04/10 16:17:00;;;;;;;3.43;3.10;;;;;;;14.21;36.31;99160.47;7031820;28;20205;-78
2022/04/10 16:20:23;;;;;;;5.00;3.33;;;;;;;14.09;36.26;99166.81;7032951;28;20221;-78
2022/04/10 16:23:46;;;;;;;3.60;3.20;;;;;;;13.47;38.37;99159.44;7032186;28;20201;-77
2022/04/10 16:30:49;;;;;;;4.60;3.50;;;;;;;14.34;36.97;99165.81;6997007;28;20230;-78
2022/04/10 16:34:19;;;;;;;6.13;3.53;;;;;;;13.86;37.17;99159.22;7031658;28;20217;-77